sensor_id;sensor_type;location;lat;lon;timestamp;pressure;altitude;pressure_sealevel;temperature;humidity
61436;BME280;47304;47.456;19.160;2024-01-30T00:01:13;102656.43;;;-2.06;72.49
61436;BME280;47304;47.456;19.160;2024-01-30T00:03:41;102658.41;;;-2.07;72.48
61436;BME280;47304;47.456;19.160;2024-01-30T00:06:12;102655.69;;;-2.09;72.41
61436;BME280;47304;47.456;19.160;2024-01-30T00:08:40;102662.41;;;-2.12;72.25
61436;BME280;47304;47.456;19.160;2024-01-30T00:11:10;102659.85;;;-2.16;72.55
61436;BME280;47304;47.456;19.160;2024-01-30T00:13:38;102656.30;;;-2.20;72.75
61436;BME280;47304;47.456;19.160;2024-01-30T00:16:07;102660.48;;;-2.23;72.77
61436;BME280;47304;47.456;19.160;2024-01-30T00:18:36;102658.06;;;-2.25;72.97
61436;BME280;47304;47.456;19.160;2024-01-30T00:21:04;102660.69;;;-2.26;73.11
61436;BME280;47304;47.456;19.160;2024-01-30T00:23:32;102654.35;;;-2.30;73.16
61436;BME280;47304;47.456;19.160;2024-01-30T00:26:00;102657.96;;;-2.34;73.31
61436;BME280;47304;47.456;19.160;2024-01-30T00:28:29;102660.53;;;-2.38;73.53
61436;BME280;47304;47.456;19.160;2024-01-30T00:30:57;102661.88;;;-2.42;73.83
61436;BME280;47304;47.456;19.160;2024-01-30T00:33:25;102659.80;;;-2.46;74.04
61436;BME280;47304;47.456;19.160;2024-01-30T00:35:53;102667.48;;;-2.47;74.27
61436;BME280;47304;47.456;19.160;2024-01-30T00:38:21;102665.30;;;-2.48;74.48
61436;BME280;47304;47.456;19.160;2024-01-30T00:40:50;102667.23;;;-2.47;74.48
61436;BME280;47304;47.456;19.160;2024-01-30T00:43:18;102668.30;;;-2.45;74.60
61436;BME280;47304;47.456;19.160;2024-01-30T00:45:46;102672.50;;;-2.44;74.47
61436;BME280;47304;47.456;19.160;2024-01-30T00:48:14;102672.67;;;-2.44;74.39
61436;BME280;47304;47.456;19.160;2024-01-30T00:50:42;102672.06;;;-2.41;74.35
61436;BME280;47304;47.456;19.160;2024-01-30T00:53:10;102666.58;;;-2.43;74.28
61436;BME280;47304;47.456;19.160;2024-01-30T00:55:39;102663.13;;;-2.45;74.20
61436;BME280;47304;47.456;19.160;2024-01-30T00:58:07;102667.57;;;-2.48;74.25
61436;BME280;47304;47.456;19.160;2024-01-30T01:00:36;102667.11;;;-2.51;74.43
61436;BME280;47304;47.456;19.160;2024-01-30T01:03:04;102670.61;;;-2.52;74.50
61436;BME280;47304;47.456;19.160;2024-01-30T01:05:32;102667.69;;;-2.52;74.78
61436;BME280;47304;47.456;19.160;2024-01-30T01:08:01;102668.55;;;-2.50;74.62
61436;BME280;47304;47.456;19.160;2024-01-30T01:10:29;102665.08;;;-2.48;74.53
61436;BME280;47304;47.456;19.160;2024-01-30T01:12:57;102663.69;;;-2.48;74.40
61436;BME280;47304;47.456;19.160;2024-01-30T01:15:26;102664.66;;;-2.49;74.31
61436;BME280;47304;47.456;19.160;2024-01-30T01:17:54;102663.99;;;-2.47;74.34
61436;BME280;47304;47.456;19.160;2024-01-30T01:20:22;102657.40;;;-2.46;74.23
61436;BME280;47304;47.456;19.160;2024-01-30T01:22:50;102664.15;;;-2.43;74.18
61436;BME280;47304;47.456;19.160;2024-01-30T01:25:18;102659.52;;;-2.42;74.10
61436;BME280;47304;47.456;19.160;2024-01-30T01:27:46;102655.55;;;-2.42;73.93
61436;BME280;47304;47.456;19.160;2024-01-30T01:30:15;102655.95;;;-2.41;73.85
61436;BME280;47304;47.456;19.160;2024-01-30T01:32:43;102655.11;;;-2.41;73.70
61436;BME280;47304;47.456;19.160;2024-01-30T01:35:12;102654.18;;;-2.42;73.56
61436;BME280;47304;47.456;19.160;2024-01-30T01:37:40;102653.77;;;-2.43;73.43
61436;BME280;47304;47.456;19.160;2024-01-30T01:40:12;102654.18;;;-2.44;73.44
61436;BME280;47304;47.456;19.160;2024-01-30T01:42:40;102660.29;;;-2.44;73.41
61436;BME280;47304;47.456;19.160;2024-01-30T01:45:10;102655.21;;;-2.49;73.37
61436;BME280;47304;47.456;19.160;2024-01-30T01:47:38;102654.99;;;-2.54;73.42
61436;BME280;47304;47.456;19.160;2024-01-30T01:50:07;102650.39;;;-2.60;73.50
61436;BME280;47304;47.456;19.160;2024-01-30T01:52:35;102648.86;;;-2.67;73.54
61436;BME280;47304;47.456;19.160;2024-01-30T01:55:05;102649.39;;;-2.71;73.95
61436;BME280;47304;47.456;19.160;2024-01-30T01:57:35;102645.16;;;-2.76;74.36
61436;BME280;47304;47.456;19.160;2024-01-30T02:00:03;102646.33;;;-2.78;74.62
61436;BME280;47304;47.456;19.160;2024-01-30T02:02:36;102642.35;;;-2.80;74.79
61436;BME280;47304;47.456;19.160;2024-01-30T02:05:05;102641.18;;;-2.82;74.96
61436;BME280;47304;47.456;19.160;2024-01-30T02:07:33;102646.17;;;-2.84;75.08
61436;BME280;47304;47.456;19.160;2024-01-30T02:10:02;102647.84;;;-2.84;75.34
61436;BME280;47304;47.456;19.160;2024-01-30T02:12:30;102644.33;;;-2.85;75.46
61436;BME280;47304;47.456;19.160;2024-01-30T02:14:59;102642.29;;;-2.85;75.62
61436;BME280;47304;47.456;19.160;2024-01-30T02:17:27;102642.19;;;-2.82;75.59
61436;BME280;47304;47.456;19.160;2024-01-30T02:19:56;102643.30;;;-2.79;75.52
61436;BME280;47304;47.456;19.160;2024-01-30T02:22:24;102641.25;;;-2.77;75.24
61436;BME280;47304;47.456;19.160;2024-01-30T02:24:53;102639.16;;;-2.76;75.13
61436;BME280;47304;47.456;19.160;2024-01-30T02:27:21;102642.41;;;-2.74;75.01
61436;BME280;47304;47.456;19.160;2024-01-30T02:29:49;102640.36;;;-2.72;74.93
61436;BME280;47304;47.456;19.160;2024-01-30T02:32:18;102633.76;;;-2.71;74.79
61436;BME280;47304;47.456;19.160;2024-01-30T02:34:46;102640.58;;;-2.69;74.71
61436;BME280;47304;47.456;19.160;2024-01-30T02:37:14;102640.00;;;-2.68;74.60
61436;BME280;47304;47.456;19.160;2024-01-30T02:39:42;102641.00;;;-2.69;74.34
61436;BME280;47304;47.456;19.160;2024-01-30T02:42:11;102637.83;;;-2.69;74.29
61436;BME280;47304;47.456;19.160;2024-01-30T02:44:39;102643.89;;;-2.73;74.08
61436;BME280;47304;47.456;19.160;2024-01-30T02:47:08;102643.31;;;-2.75;74.11
61436;BME280;47304;47.456;19.160;2024-01-30T02:49:36;102641.88;;;-2.78;74.07
61436;BME280;47304;47.456;19.160;2024-01-30T02:52:05;102642.91;;;-2.82;74.05
61436;BME280;47304;47.456;19.160;2024-01-30T02:54:33;102645.02;;;-2.85;74.21
61436;BME280;47304;47.456;19.160;2024-01-30T02:57:01;102645.38;;;-2.87;74.23
61436;BME280;47304;47.456;19.160;2024-01-30T02:59:30;102644.52;;;-2.87;74.23
61436;BME280;47304;47.456;19.160;2024-01-30T03:01:58;102640.98;;;-2.86;74.22
61436;BME280;47304;47.456;19.160;2024-01-30T03:04:26;102639.55;;;-2.87;74.12
61436;BME280;47304;47.456;19.160;2024-01-30T03:06:55;102640.23;;;-2.87;73.95
61436;BME280;47304;47.456;19.160;2024-01-30T03:09:23;102637.95;;;-2.87;73.94
61436;BME280;47304;47.456;19.160;2024-01-30T03:11:51;102640.89;;;-2.87;74.01
61436;BME280;47304;47.456;19.160;2024-01-30T03:14:19;102637.86;;;-2.87;73.95
61436;BME280;47304;47.456;19.160;2024-01-30T03:16:47;102636.65;;;-2.86;73.80
61436;BME280;47304;47.456;19.160;2024-01-30T03:19:16;102637.26;;;-2.87;73.77
61436;BME280;47304;47.456;19.160;2024-01-30T03:21:44;102636.33;;;-2.88;73.84
61436;BME280;47304;47.456;19.160;2024-01-30T03:24:12;102633.52;;;-2.89;73.69
61436;BME280;47304;47.456;19.160;2024-01-30T03:26:41;102632.48;;;-2.89;73.70
61436;BME280;47304;47.456;19.160;2024-01-30T03:29:09;102632.38;;;-2.90;73.69
61436;BME280;47304;47.456;19.160;2024-01-30T03:31:37;102638.77;;;-2.90;73.61
61436;BME280;47304;47.456;19.160;2024-01-30T03:34:05;102635.51;;;-2.91;73.53
61436;BME280;47304;47.456;19.160;2024-01-30T03:36:34;102637.35;;;-2.94;73.50
61436;BME280;47304;47.456;19.160;2024-01-30T03:39:02;102630.13;;;-2.98;73.33
61436;BME280;47304;47.456;19.160;2024-01-30T03:41:30;102625.62;;;-3.01;73.28
61436;BME280;47304;47.456;19.160;2024-01-30T03:43:58;102626.36;;;-3.02;73.35
61436;BME280;47304;47.456;19.160;2024-01-30T03:46:26;102623.83;;;-3.03;73.40
61436;BME280;47304;47.456;19.160;2024-01-30T03:48:54;102627.69;;;-3.04;73.43
61436;BME280;47304;47.456;19.160;2024-01-30T03:51:23;102627.44;;;-3.09;73.26
61436;BME280;47304;47.456;19.160;2024-01-30T03:53:51;102626.23;;;-3.13;73.20
61436;BME280;47304;47.456;19.160;2024-01-30T03:56:20;102623.09;;;-3.15;73.47
61436;BME280;47304;47.456;19.160;2024-01-30T03:58:48;102620.16;;;-3.16;73.55
61436;BME280;47304;47.456;19.160;2024-01-30T04:01:16;102620.86;;;-3.17;73.40
61436;BME280;47304;47.456;19.160;2024-01-30T04:03:45;102617.81;;;-3.20;73.43
61436;BME280;47304;47.456;19.160;2024-01-30T04:06:13;102617.79;;;-3.21;73.62
61436;BME280;47304;47.456;19.160;2024-01-30T04:08:41;102617.63;;;-3.20;73.73
61436;BME280;47304;47.456;19.160;2024-01-30T04:11:09;102614.40;;;-3.21;73.52
61436;BME280;47304;47.456;19.160;2024-01-30T04:13:37;102610.30;;;-3.22;73.43
61436;BME280;47304;47.456;19.160;2024-01-30T04:16:07;102612.09;;;-3.23;73.42
61436;BME280;47304;47.456;19.160;2024-01-30T04:18:35;102613.63;;;-3.25;73.50
61436;BME280;47304;47.456;19.160;2024-01-30T04:21:04;102610.30;;;-3.28;73.56
61436;BME280;47304;47.456;19.160;2024-01-30T04:23:32;102607.89;;;-3.28;73.51
61436;BME280;47304;47.456;19.160;2024-01-30T04:26:00;102607.65;;;-3.29;73.48
61436;BME280;47304;47.456;19.160;2024-01-30T04:28:28;102602.62;;;-3.29;73.48
61436;BME280;47304;47.456;19.160;2024-01-30T04:30:56;102608.34;;;-3.29;73.47
61436;BME280;47304;47.456;19.160;2024-01-30T04:33:24;102610.94;;;-3.28;73.51
61436;BME280;47304;47.456;19.160;2024-01-30T04:35:53;102610.55;;;-3.29;73.46
61436;BME280;47304;47.456;19.160;2024-01-30T04:38:21;102615.66;;;-3.29;73.45
61436;BME280;47304;47.456;19.160;2024-01-30T04:40:49;102617.81;;;-3.30;73.58
61436;BME280;47304;47.456;19.160;2024-01-30T04:43:18;102617.17;;;-3.32;73.58
61436;BME280;47304;47.456;19.160;2024-01-30T04:45:46;102615.12;;;-3.32;73.56
61436;BME280;47304;47.456;19.160;2024-01-30T04:48:14;102617.59;;;-3.32;73.22
61436;BME280;47304;47.456;19.160;2024-01-30T04:50:42;102618.20;;;-3.33;73.38
61436;BME280;47304;47.456;19.160;2024-01-30T04:53:11;102619.60;;;-3.35;73.46
61436;BME280;47304;47.456;19.160;2024-01-30T04:55:39;102620.80;;;-3.37;73.41
61436;BME280;47304;47.456;19.160;2024-01-30T04:58:07;102622.19;;;-3.38;73.60
61436;BME280;47304;47.456;19.160;2024-01-30T05:00:36;102625.13;;;-3.38;73.60
61436;BME280;47304;47.456;19.160;2024-01-30T05:03:04;102625.62;;;-3.40;73.54
61436;BME280;47304;47.456;19.160;2024-01-30T05:05:32;102627.17;;;-3.40;73.54
61436;BME280;47304;47.456;19.160;2024-01-30T05:08:00;102628.78;;;-3.41;73.53
61436;BME280;47304;47.456;19.160;2024-01-30T05:10:29;102631.38;;;-3.45;73.42
61436;BME280;47304;47.456;19.160;2024-01-30T05:12:57;102629.96;;;-3.47;73.47
61436;BME280;47304;47.456;19.160;2024-01-30T05:15:25;102631.18;;;-3.49;73.62
61436;BME280;47304;47.456;19.160;2024-01-30T05:17:53;102638.10;;;-3.50;73.60
61436;BME280;47304;47.456;19.160;2024-01-30T05:20:22;102639.16;;;-3.51;73.45
61436;BME280;47304;47.456;19.160;2024-01-30T05:22:50;102643.06;;;-3.54;73.59
61436;BME280;47304;47.456;19.160;2024-01-30T05:25:19;102640.36;;;-3.55;73.61
61436;BME280;47304;47.456;19.160;2024-01-30T05:27:47;102647.05;;;-3.57;73.68
61436;BME280;47304;47.456;19.160;2024-01-30T05:30:16;102650.67;;;-3.58;73.72
61436;BME280;47304;47.456;19.160;2024-01-30T05:32:44;102654.69;;;-3.60;73.84
61436;BME280;47304;47.456;19.160;2024-01-30T05:35:16;102654.18;;;-3.62;73.98
61436;BME280;47304;47.456;19.160;2024-01-30T05:37:45;102654.41;;;-3.62;73.82
61436;BME280;47304;47.456;19.160;2024-01-30T05:40:14;102657.27;;;-3.63;73.90
61436;BME280;47304;47.456;19.160;2024-01-30T05:42:43;102656.73;;;-3.65;74.02
61436;BME280;47304;47.456;19.160;2024-01-30T05:45:11;102659.14;;;-3.69;74.07
61436;BME280;47304;47.456;19.160;2024-01-30T05:47:40;102663.56;;;-3.71;74.20
61436;BME280;47304;47.456;19.160;2024-01-30T05:50:09;102658.66;;;-3.76;74.18
61436;BME280;47304;47.456;19.160;2024-01-30T05:52:37;102662.39;;;-3.80;74.27
61436;BME280;47304;47.456;19.160;2024-01-30T05:55:07;102666.04;;;-3.83;74.47
61436;BME280;47304;47.456;19.160;2024-01-30T05:57:36;102663.59;;;-3.83;74.66
61436;BME280;47304;47.456;19.160;2024-01-30T06:00:05;102654.10;;;-3.86;74.71
61436;BME280;47304;47.456;19.160;2024-01-30T06:02:33;102658.75;;;-3.86;74.88
61436;BME280;47304;47.456;19.160;2024-01-30T06:05:02;102666.16;;;-3.87;74.86
61436;BME280;47304;47.456;19.160;2024-01-30T06:07:30;102666.53;;;-3.87;74.94
61436;BME280;47304;47.456;19.160;2024-01-30T06:09:59;102667.18;;;-3.85;75.07
61436;BME280;47304;47.456;19.160;2024-01-30T06:12:27;102667.43;;;-3.86;74.95
61436;BME280;47304;47.456;19.160;2024-01-30T06:14:55;102664.20;;;-3.86;74.99
61436;BME280;47304;47.456;19.160;2024-01-30T06:17:24;102672.49;;;-3.89;74.94
61436;BME280;47304;47.456;19.160;2024-01-30T06:19:52;102674.30;;;-3.89;75.28
61436;BME280;47304;47.456;19.160;2024-01-30T06:22:20;102674.88;;;-3.91;75.32
61436;BME280;47304;47.456;19.160;2024-01-30T06:24:48;102675.35;;;-3.87;75.55
61436;BME280;47304;47.456;19.160;2024-01-30T06:27:17;102675.13;;;-3.83;75.77
61436;BME280;47304;47.456;19.160;2024-01-30T06:29:45;102676.20;;;-3.79;75.55
61436;BME280;47304;47.456;19.160;2024-01-30T06:32:13;102672.23;;;-3.74;75.51
61436;BME280;47304;47.456;19.160;2024-01-30T06:34:41;102677.23;;;-3.70;75.40
61436;BME280;47304;47.456;19.160;2024-01-30T06:37:10;102672.66;;;-3.65;75.42
61436;BME280;47304;47.456;19.160;2024-01-30T06:39:38;102674.07;;;-3.60;75.35
61436;BME280;47304;47.456;19.160;2024-01-30T06:42:06;102675.77;;;-3.54;75.33
61436;BME280;47304;47.456;19.160;2024-01-30T06:44:34;102679.34;;;-3.49;75.21
61436;BME280;47304;47.456;19.160;2024-01-30T06:47:03;102675.52;;;-3.44;75.29
61436;BME280;47304;47.456;19.160;2024-01-30T06:49:31;102678.36;;;-3.37;75.34
61436;BME280;47304;47.456;19.160;2024-01-30T06:51:59;102682.80;;;-3.31;75.40
61436;BME280;47304;47.456;19.160;2024-01-30T06:54:27;102681.56;;;-3.24;75.34
61436;BME280;47304;47.456;19.160;2024-01-30T06:56:56;102676.73;;;-3.17;75.43
61436;BME280;47304;47.456;19.160;2024-01-30T06:59:24;102674.09;;;-3.09;75.44
61436;BME280;47304;47.456;19.160;2024-01-30T07:01:52;102672.98;;;-3.00;75.40
61436;BME280;47304;47.456;19.160;2024-01-30T07:04:20;102673.15;;;-2.93;75.37
61436;BME280;47304;47.456;19.160;2024-01-30T07:06:49;102671.30;;;-2.85;75.49
61436;BME280;47304;47.456;19.160;2024-01-30T07:09:17;102679.27;;;-2.74;75.47
61436;BME280;47304;47.456;19.160;2024-01-30T07:11:45;102674.61;;;-2.65;75.33
61436;BME280;47304;47.456;19.160;2024-01-30T07:14:13;102679.21;;;-2.56;75.16
61436;BME280;47304;47.456;19.160;2024-01-30T07:16:41;102677.14;;;-2.46;75.23
61436;BME280;47304;47.456;19.160;2024-01-30T07:19:10;102677.63;;;-2.35;75.19
61436;BME280;47304;47.456;19.160;2024-01-30T07:21:38;102675.98;;;-2.24;75.11
61436;BME280;47304;47.456;19.160;2024-01-30T07:24:07;102681.64;;;-2.12;75.24
61436;BME280;47304;47.456;19.160;2024-01-30T07:26:35;102681.50;;;-2.00;75.31
61436;BME280;47304;47.456;19.160;2024-01-30T07:29:04;102681.41;;;-1.87;75.42
61436;BME280;47304;47.456;19.160;2024-01-30T07:31:32;102675.45;;;-1.75;75.48
61436;BME280;47304;47.456;19.160;2024-01-30T07:34:01;102674.73;;;-1.61;75.43
61436;BME280;47304;47.456;19.160;2024-01-30T07:36:30;102674.86;;;-1.47;75.40
61436;BME280;47304;47.456;19.160;2024-01-30T07:38:58;102676.11;;;-1.35;75.47
61436;BME280;47304;47.456;19.160;2024-01-30T07:41:26;102675.95;;;-1.22;75.31
61436;BME280;47304;47.456;19.160;2024-01-30T07:43:55;102676.40;;;-1.11;75.15
61436;BME280;47304;47.456;19.160;2024-01-30T07:46:23;102672.83;;;-0.98;75.20
61436;BME280;47304;47.456;19.160;2024-01-30T07:48:53;102674.11;;;-0.86;75.07
61436;BME280;47304;47.456;19.160;2024-01-30T07:51:22;102667.20;;;-0.76;74.93
61436;BME280;47304;47.456;19.160;2024-01-30T07:53:52;102665.48;;;-0.68;74.84
61436;BME280;47304;47.456;19.160;2024-01-30T07:56:21;102662.08;;;-0.56;74.87
61436;BME280;47304;47.456;19.160;2024-01-30T07:58:49;102661.92;;;-0.46;74.74
61436;BME280;47304;47.456;19.160;2024-01-30T08:01:17;102659.03;;;-0.34;74.76
61436;BME280;47304;47.456;19.160;2024-01-30T08:03:45;102662.20;;;-0.23;74.64
61436;BME280;47304;47.456;19.160;2024-01-30T08:06:14;102666.35;;;-0.09;74.56
61436;BME280;47304;47.456;19.160;2024-01-30T08:08:42;102661.08;;;0.02;74.45
61436;BME280;47304;47.456;19.160;2024-01-30T08:11:10;102665.80;;;0.17;74.43
61436;BME280;47304;47.456;19.160;2024-01-30T08:13:38;102663.33;;;0.31;74.21
61436;BME280;47304;47.456;19.160;2024-01-30T08:16:07;102661.35;;;0.44;74.00
61436;BME280;47304;47.456;19.160;2024-01-30T08:18:35;102664.08;;;0.59;73.93
61436;BME280;47304;47.456;19.160;2024-01-30T08:21:03;102666.71;;;0.76;73.85
61436;BME280;47304;47.456;19.160;2024-01-30T08:23:32;102666.64;;;0.96;73.66
61436;BME280;47304;47.456;19.160;2024-01-30T08:26:00;102668.46;;;1.18;73.26
61436;BME280;47304;47.456;19.160;2024-01-30T08:28:29;102669.88;;;1.44;72.95
61436;BME280;47304;47.456;19.160;2024-01-30T08:30:57;102665.13;;;1.74;72.72
61436;BME280;47304;47.456;19.160;2024-01-30T08:33:25;102665.06;;;2.07;72.22
61436;BME280;47304;47.456;19.160;2024-01-30T08:35:53;102665.17;;;2.34;71.40
61436;BME280;47304;47.456;19.160;2024-01-30T08:38:22;102672.92;;;2.63;71.07
61436;BME280;47304;47.456;19.160;2024-01-30T08:40:50;102670.54;;;2.99;70.49
61436;BME280;47304;47.456;19.160;2024-01-30T08:43:18;102669.80;;;3.33;69.77
61436;BME280;47304;47.456;19.160;2024-01-30T08:45:46;102666.17;;;3.68;69.26
61436;BME280;47304;47.456;19.160;2024-01-30T08:48:14;102669.86;;;4.16;68.85
61436;BME280;47304;47.456;19.160;2024-01-30T08:50:42;102671.52;;;5.19;68.10
61436;BME280;47304;47.456;19.160;2024-01-30T08:53:11;102666.74;;;6.63;67.03
61436;BME280;47304;47.456;19.160;2024-01-30T08:55:39;102660.00;;;8.48;64.61
61436;BME280;47304;47.456;19.160;2024-01-30T08:58:07;102655.34;;;9.97;61.40
61436;BME280;47304;47.456;19.160;2024-01-30T09:00:35;102645.63;;;11.49;58.30
61436;BME280;47304;47.456;19.160;2024-01-30T09:03:04;102642.88;;;12.98;55.55
61436;BME280;47304;47.456;19.160;2024-01-30T09:05:32;102636.77;;;14.48;52.53
61436;BME280;47304;47.456;19.160;2024-01-30T09:08:01;102630.88;;;15.92;49.18
61436;BME280;47304;47.456;19.160;2024-01-30T09:10:29;102628.21;;;16.81;46.21
61436;BME280;47304;47.456;19.160;2024-01-30T09:12:57;102626.77;;;17.42;43.63
61436;BME280;47304;47.456;19.160;2024-01-30T09:15:25;102620.91;;;18.02;42.02
61436;BME280;47304;47.456;19.160;2024-01-30T09:17:54;102624.98;;;18.50;40.56
61436;BME280;47304;47.456;19.160;2024-01-30T09:20:22;102622.39;;;18.82;39.46
61436;BME280;47304;47.456;19.160;2024-01-30T09:22:50;102620.02;;;19.63;38.14
61436;BME280;47304;47.456;19.160;2024-01-30T09:25:18;102616.29;;;20.52;36.60
61436;BME280;47304;47.456;19.160;2024-01-30T09:27:47;102617.52;;;21.45;34.88
61436;BME280;47304;47.456;19.160;2024-01-30T09:30:15;102618.48;;;22.01;33.54
61436;BME280;47304;47.456;19.160;2024-01-30T09:32:44;102618.78;;;21.21;33.72
61436;BME280;47304;47.456;19.160;2024-01-30T09:35:12;102622.90;;;21.73;33.00
61436;BME280;47304;47.456;19.160;2024-01-30T09:37:40;102617.54;;;22.82;31.81
61436;BME280;47304;47.456;19.160;2024-01-30T09:40:10;102618.11;;;22.28;31.13
61436;BME280;47304;47.456;19.160;2024-01-30T09:42:38;102619.59;;;21.07;31.02
61436;BME280;47304;47.456;19.160;2024-01-30T09:45:08;102620.95;;;20.47;31.55
61436;BME280;47304;47.456;19.160;2024-01-30T09:47:41;102618.16;;;20.67;31.08
61436;BME280;47304;47.456;19.160;2024-01-30T09:50:10;102621.25;;;19.71;31.55
61436;BME280;47304;47.456;19.160;2024-01-30T09:52:39;102621.13;;;18.69;32.38
61436;BME280;47304;47.456;19.160;2024-01-30T09:55:08;102624.44;;;17.67;33.03
61436;BME280;47304;47.456;19.160;2024-01-30T09:57:37;102627.17;;;16.66;34.15
61436;BME280;47304;47.456;19.160;2024-01-30T10:00:07;102628.67;;;16.10;35.23
61436;BME280;47304;47.456;19.160;2024-01-30T10:02:35;102627.94;;;16.24;35.39
61436;BME280;47304;47.456;19.160;2024-01-30T10:05:04;102623.94;;;17.46;34.33
61436;BME280;47304;47.456;19.160;2024-01-30T10:07:32;102618.65;;;18.81;33.03
61436;BME280;47304;47.456;19.160;2024-01-30T10:10:00;102620.40;;;20.10;31.92
61436;BME280;47304;47.456;19.160;2024-01-30T10:12:29;102619.02;;;21.53;30.63
61436;BME280;47304;47.456;19.160;2024-01-30T10:14:57;102613.50;;;23.18;29.29
61436;BME280;47304;47.456;19.160;2024-01-30T10:17:27;102614.30;;;24.50;27.40
61436;BME280;47304;47.456;19.160;2024-01-30T10:19:56;102612.80;;;24.83;26.72
61436;BME280;47304;47.456;19.160;2024-01-30T10:22:24;102615.39;;;23.80;26.69
61436;BME280;47304;47.456;19.160;2024-01-30T10:24:53;102610.02;;;23.55;26.36
61436;BME280;47304;47.456;19.160;2024-01-30T10:27:26;102606.92;;;23.38;26.43
61436;BME280;47304;47.456;19.160;2024-01-30T10:29:55;102604.77;;;24.11;25.51
61436;BME280;47304;47.456;19.160;2024-01-30T10:32:23;102602.55;;;24.68;25.33
61436;BME280;47304;47.456;19.160;2024-01-30T10:34:51;102599.56;;;25.31;24.65
61436;BME280;47304;47.456;19.160;2024-01-30T10:37:20;102593.67;;;25.16;24.52
61436;BME280;47304;47.456;19.160;2024-01-30T10:39:50;102587.95;;;25.73;24.19
61436;BME280;47304;47.456;19.160;2024-01-30T10:42:22;102584.11;;;26.63;22.87
61436;BME280;47304;47.456;19.160;2024-01-30T10:44:59;102580.63;;;27.23;22.65
61436;BME280;47304;47.456;19.160;2024-01-30T10:47:29;102582.56;;;29.07;22.12
61436;BME280;47304;47.456;19.160;2024-01-30T10:49:58;102574.25;;;30.92;20.72
61436;BME280;47304;47.456;19.160;2024-01-30T10:52:27;102571.11;;;32.02;19.23
61436;BME280;47304;47.456;19.160;2024-01-30T10:54:57;102567.38;;;32.13;18.38
61436;BME280;47304;47.456;19.160;2024-01-30T10:57:27;102558.48;;;32.07;18.15
61436;BME280;47304;47.456;19.160;2024-01-30T10:59:58;102558.31;;;32.60;18.16
61436;BME280;47304;47.456;19.160;2024-01-30T11:02:27;102554.85;;;30.95;18.12
61436;BME280;47304;47.456;19.160;2024-01-30T11:04:58;102555.38;;;28.05;19.62
61436;BME280;47304;47.456;19.160;2024-01-30T11:07:28;102558.52;;;25.95;21.03
61436;BME280;47304;47.456;19.160;2024-01-30T11:10:04;102556.09;;;23.72;22.48
61436;BME280;47304;47.456;19.160;2024-01-30T11:12:37;102552.84;;;22.36;23.92
61436;BME280;47304;47.456;19.160;2024-01-30T11:15:08;102555.10;;;21.62;25.06
61436;BME280;47304;47.456;19.160;2024-01-30T11:17:50;102551.91;;;21.10;25.50
61436;BME280;47304;47.456;19.160;2024-01-30T11:20:21;102550.66;;;20.42;25.94
61436;BME280;47304;47.456;19.160;2024-01-30T11:22:52;102548.23;;;19.59;27.21
61436;BME280;47304;47.456;19.160;2024-01-30T11:25:22;102549.95;;;19.02;27.89
61436;BME280;47304;47.456;19.160;2024-01-30T11:27:53;102545.41;;;19.48;27.98
61436;BME280;47304;47.456;19.160;2024-01-30T11:30:25;102538.04;;;20.85;26.87
61436;BME280;47304;47.456;19.160;2024-01-30T11:33:05;102534.21;;;22.18;25.93
61436;BME280;47304;47.456;19.160;2024-01-30T11:35:36;102530.63;;;23.07;24.89
61436;BME280;47304;47.456;19.160;2024-01-30T11:38:05;102537.02;;;21.88;25.20
61436;BME280;47304;47.456;19.160;2024-01-30T11:40:34;102541.10;;;19.86;26.68
61436;BME280;47304;47.456;19.160;2024-01-30T11:43:04;102536.36;;;18.20;28.39
61436;BME280;47304;47.456;19.160;2024-01-30T11:45:33;102536.80;;;17.86;29.05
61436;BME280;47304;47.456;19.160;2024-01-30T11:48:03;102539.27;;;17.18;29.76
61436;BME280;47304;47.456;19.160;2024-01-30T11:50:31;102538.58;;;16.03;31.27
61436;BME280;47304;47.456;19.160;2024-01-30T11:53:00;102535.52;;;15.57;32.36
61436;BME280;47304;47.456;19.160;2024-01-30T11:55:30;102533.58;;;16.02;32.42
61436;BME280;47304;47.456;19.160;2024-01-30T11:57:58;102519.30;;;18.43;31.12
61436;BME280;47304;47.456;19.160;2024-01-30T12:00:27;102510.79;;;21.14;28.46
61436;BME280;47304;47.456;19.160;2024-01-30T12:02:56;102501.63;;;23.42;26.05
61436;BME280;47304;47.456;19.160;2024-01-30T12:05:25;102492.34;;;25.28;24.41
61436;BME280;47304;47.456;19.160;2024-01-30T12:07:53;102487.39;;;26.60;22.52
61436;BME280;47304;47.456;19.160;2024-01-30T12:10:22;102481.14;;;27.10;21.28
61436;BME280;47304;47.456;19.160;2024-01-30T12:12:51;102481.29;;;27.40;21.08
61436;BME280;47304;47.456;19.160;2024-01-30T12:15:21;102472.39;;;28.20;20.24
61436;BME280;47304;47.456;19.160;2024-01-30T12:17:49;102471.94;;;28.05;19.43
61436;BME280;47304;47.456;19.160;2024-01-30T12:20:19;102472.83;;;26.68;20.03
61436;BME280;47304;47.456;19.160;2024-01-30T12:22:48;102473.01;;;25.00;21.28
61436;BME280;47304;47.456;19.160;2024-01-30T12:25:18;102470.58;;;23.30;22.47
61436;BME280;47304;47.456;19.160;2024-01-30T12:27:48;102473.70;;;21.62;23.90
61436;BME280;47304;47.456;19.160;2024-01-30T12:30:17;102472.98;;;19.97;25.34
61436;BME280;47304;47.456;19.160;2024-01-30T12:32:47;102473.94;;;18.82;26.79
61436;BME280;47304;47.456;19.160;2024-01-30T12:35:17;102477.39;;;17.80;27.64
61436;BME280;47304;47.456;19.160;2024-01-30T12:37:46;102479.89;;;16.60;28.65
61436;BME280;47304;47.456;19.160;2024-01-30T12:40:15;102482.45;;;15.51;30.31
61436;BME280;47304;47.456;19.160;2024-01-30T12:42:43;102477.94;;;14.81;31.62
61436;BME280;47304;47.456;19.160;2024-01-30T12:45:15;102471.43;;;14.11;32.25
61436;BME280;47304;47.456;19.160;2024-01-30T12:47:43;102482.73;;;13.48;33.23